Time;durP1;ratioP1;P1;durP2;ratioP2;P2;SDS_P1;SDS_P2;PMS_P1;PMS_P2;Temp;Humidity;BMP_temperature;BMP_pressure;BME280_temperature;BME280_humidity;BME280_pressure;Samples;Min_cycle;Max_cycle;Signal;HPM_P1;HPM_P2
2021/09/17 00:00:13;;;;;;;5.65;3.35;;;;;;;9.54;67.88;99830.00;5088790;28;20070;-53
2021/09/17 00:02:57;;;;;;;5.20;3.33;;;;;;;9.52;68.34;99821.44;5095902;28;20503;-48
2021/09/17 00:05:24;;;;;;;5.82;3.47;;;;;;;9.54;67.64;99830.00;5090583;28;20050;-51
2021/09/17 00:07:50;;;;;;;4.65;3.08;;;;;;;9.53;67.75;99823.09;5090677;28;20426;-49
2021/09/17 00:10:17;;;;;;;5.65;3.08;;;;;;;9.52;67.57;99824.88;5089028;28;20043;-49
2021/09/17 00:13:01;;;;;;;9.73;3.55;;;;;;;9.50;67.44;99826.66;5090555;28;20048;-49
2021/09/17 00:15:26;;;;;;;8.70;4.82;;;;;;;9.42;67.59;99810.41;5090674;28;20050;-51
2021/09/17 00:17:52;;;;;;;7.75;4.28;;;;;;;9.51;68.00;99827.50;5090245;28;20035;-47
2021/09/17 00:20:18;;;;;;;8.00;3.75;;;;;;;9.49;67.63;99819.75;5090483;28;20048;-49
2021/09/17 00:22:45;;;;;;;6.35;3.65;;;;;;;9.50;67.71;99826.66;5088078;28;20044;-49
2021/09/17 00:25:11;;;;;;;6.82;4.25;;;;;;;9.50;68.04;99823.19;5084569;28;20054;-53
2021/09/17 00:27:37;;;;;;;9.77;4.50;;;;;;;9.44;68.28;99805.19;5094297;28;20040;-48
2021/09/17 00:30:04;;;;;;;7.53;3.97;;;;;;;9.51;68.13;99820.56;5089864;28;20032;-51
2021/09/17 00:32:30;;;;;;;8.70;4.55;;;;;;;9.48;67.91;99810.25;5085314;28;20503;-49
2021/09/17 00:34:56;;;;;;;8.88;4.60;;;;;;;9.49;68.48;99811.97;5089977;28;20139;-56
2021/09/17 00:37:22;;;;;;;8.40;4.72;;;;;;;9.48;69.01;99815.44;5072189;28;20464;-49
2021/09/17 00:39:47;;;;;;;6.72;4.03;;;;;;;9.47;68.86;99810.31;5089417;28;20056;-51
2021/09/17 00:42:35;;;;;;;8.38;3.67;;;;;;;9.46;69.17;99811.22;5089482;28;20071;-52
2021/09/17 00:45:19;;;;;;;10.90;4.00;;;;;;;9.45;69.47;99822.47;5093287;28;20050;-52
2021/09/17 00:47:45;;;;;;;7.80;3.75;;;;;;;9.45;68.90;99819.88;5076607;28;20035;-52
2021/09/17 00:50:15;;;;;;;7.55;3.85;;;;;;;9.44;69.14;99818.19;5089854;28;20502;-50
2021/09/17 00:52:41;;;;;;;6.88;3.80;;;;;;;9.34;69.18;99796.81;5089065;28;20039;-52
2021/09/17 00:55:08;;;;;;;7.72;3.50;;;;;;;9.30;69.31;99795.22;5089673;28;20085;-51
2021/09/17 00:57:34;;;;;;;6.18;3.10;;;;;;;9.43;69.78;99814.72;5104101;28;20112;-51
2021/09/17 01:00:01;;;;;;;6.82;3.30;;;;;;;9.45;69.59;99817.28;5105994;28;20043;-51
2021/09/17 01:02:27;;;;;;;6.80;3.33;;;;;;;9.41;69.75;99813.94;5093401;28;20470;-50
2021/09/17 01:04:52;;;;;;;4.68;2.80;;;;;;;9.41;70.07;99813.94;5089843;28;20476;-51
2021/09/17 01:10:04;;;;;;;7.40;3.50;;;;;;;9.42;69.81;99814.78;5079073;28;20159;-49
2021/09/17 01:12:30;;;;;;;8.35;3.47;;;;;;;9.41;70.45;99807.91;5086911;28;20035;-48
2021/09/17 01:14:56;;;;;;;6.50;3.63;;;;;;;9.39;70.53;99814.84;5088851;28;20040;-51
2021/09/17 01:17:30;;;;;;;6.32;3.30;;;;;;;9.35;70.94;99808.91;5089759;28;20584;-52
2021/09/17 01:19:56;;;;;;;7.75;3.58;;;;;;;9.37;71.28;99809.69;5088622;28;20046;-50
2021/09/17 01:22:21;;;;;;;8.27;3.58;;;;;;;9.38;71.58;99815.75;5089568;28;20040;-51
2021/09/17 01:24:47;;;;;;;5.53;3.55;;;;;;;9.23;71.49;99791.94;5089098;28;20044;-48
2021/09/17 01:27:13;;;;;;;8.52;3.95;;;;;;;9.40;71.28;99816.56;5075304;28;20071;-48
2021/09/17 01:29:39;;;;;;;6.10;4.07;;;;;;;9.41;71.93;99813.94;5100117;28;20043;-48
2021/09/17 01:32:05;;;;;;;6.63;3.33;;;;;;;9.42;72.32;99807.81;5106546;28;20503;-49
2021/09/17 01:34:30;;;;;;;6.93;3.70;;;;;;;9.43;72.20;99808.69;5101690;28;20113;-48
2021/09/17 01:36:56;;;;;;;10.45;3.70;;;;;;;9.32;71.88;99791.66;5097121;28;20096;-49
2021/09/17 01:42:25;;;;;;;4.88;3.25;;;;;;;9.40;71.57;99801.84;5089512;28;20162;-49
2021/09/17 01:44:51;;;;;;;7.63;3.28;;;;;;;9.39;71.33;99807.06;5116801;28;20114;-49
2021/09/17 01:47:17;;;;;;;5.07;3.50;;;;;;;9.33;71.46;99792.53;5103764;28;20042;-52
2021/09/17 01:49:42;;;;;;;5.57;3.53;;;;;;;9.31;71.47;99783.94;5088129;28;20036;-49
2021/09/17 01:52:08;;;;;;;4.97;3.10;;;;;;;9.35;70.91;99793.34;5095644;27;20106;-49
2021/09/17 01:54:36;;;;;;;6.20;3.40;;;;;;;9.25;70.53;99779.78;5093177;28;20044;-47
2021/09/17 01:57:04;;;;;;;7.38;3.38;;;;;;;9.30;70.98;99795.22;5091190;28;20039;-51
2021/09/17 01:59:29;;;;;;;6.10;3.30;;;;;;;9.31;70.69;99796.91;5096786;28;20051;-50
2021/09/17 02:01:55;;;;;;;5.75;2.88;;;;;;;9.30;70.62;99793.47;5095867;27;20555;-52
2021/09/17 02:04:21;;;;;;;5.15;3.53;;;;;;;9.28;70.79;99796.97;5094179;27;20040;-51
2021/09/17 02:06:47;;;;;;;5.63;3.50;;;;;;;9.27;70.56;99796.13;5081464;28;20536;-51
2021/09/17 02:09:31;;;;;;;5.30;3.38;;;;;;;9.25;70.56;99799.69;5092709;28;20042;-49
2021/09/17 02:11:58;;;;;;;6.55;3.35;;;;;;;9.24;70.47;99793.63;5093078;28;20067;-51
2021/09/17 02:14:23;;;;;;;5.40;3.72;;;;;;;9.23;70.80;99794.53;5094816;28;20502;-52
2021/09/17 02:16:49;;;;;;;5.38;3.22;;;;;;;9.22;70.45;99791.97;5082047;28;20461;-49
2021/09/17 02:19:15;;;;;;;5.63;3.25;;;;;;;9.21;70.82;99791.09;5110196;27;20051;-54
2021/09/17 02:21:41;;;;;;;6.20;2.97;;;;;;;9.21;70.23;99790.28;5091491;28;20065;-50
2021/09/17 02:24:07;;;;;;;6.07;3.70;;;;;;;9.20;70.53;99788.56;5041334;28;20036;-49
2021/09/17 02:29:17;;;;;;;6.85;3.50;;;;;;;9.22;70.75;99800.59;5092587;28;20040;-50
2021/09/17 02:31:43;;;;;;;5.05;3.53;;;;;;;9.22;71.12;99794.56;5091808;28;20503;-48
2021/09/17 02:34:09;;;;;;;4.93;3.40;;;;;;;9.24;71.08;99795.38;5083579;28;20417;-51
2021/09/17 02:36:34;;;;;;;5.15;3.63;;;;;;;9.12;71.45;99774.94;5082724;28;20128;-48
2021/09/17 02:41:45;;;;;;;9.05;3.78;;;;;;;9.17;70.95;99792.09;5094146;28;20035;-49
2021/09/17 02:44:11;;;;;;;6.25;3.28;;;;;;;9.10;70.67;99779.34;5111655;28;20040;-50
2021/09/17 02:49:21;;;;;;;5.78;3.20;;;;;;;9.16;70.36;99792.16;5091097;28;20402;-49
2021/09/17 02:52:05;;;;;;;5.68;3.53;;;;;;;9.15;70.55;99799.06;5104749;27;20050;-49
2021/09/17 02:54:31;;;;;;;6.10;3.33;;;;;;;9.16;70.91;99797.34;5111541;28;20047;-50
2021/09/17 02:56:57;;;;;;;5.57;3.30;;;;;;;9.14;71.23;99796.53;5099362;28;20744;-48
2021/09/17 02:59:22;;;;;;;5.65;3.50;;;;;;;9.12;71.20;99798.28;5111103;28;20066;-47
2021/09/17 03:01:48;;;;;;;5.43;3.50;;;;;;;9.13;71.26;99802.59;5104575;28;20067;-48
2021/09/17 03:04:14;;;;;;;6.10;3.95;;;;;;;9.12;71.48;99800.88;5101602;28;20055;-48
2021/09/17 03:06:40;;;;;;;5.60;3.53;;;;;;;9.14;71.51;99806.88;5112613;28;20043;-50
2021/09/17 03:09:05;;;;;;;8.60;3.90;;;;;;;9.13;71.32;99807.78;5093753;28;20400;-48
2021/09/17 03:11:31;;;;;;;10.23;4.85;;;;;;;9.13;71.62;99802.59;5108043;28;20138;-49
2021/09/17 03:16:41;;;;;;;10.32;5.22;;;;;;;9.15;71.80;99806.84;5092161;28;20043;-48
2021/09/17 03:19:07;;;;;;;5.85;4.32;;;;;;;9.15;71.55;99809.44;5073684;28;20059;-50
2021/09/17 03:21:32;;;;;;;14.77;5.38;;;;;;;9.17;71.96;99809.38;5091680;28;20038;-51
2021/09/17 03:23:58;;;;;;;8.38;5.18;;;;;;;9.18;71.66;99814.53;5091726;28;20131;-50
2021/09/17 03:26:24;;;;;;;11.65;5.00;;;;;;;9.18;71.39;99800.72;5091867;28;20042;-49
2021/09/17 03:29:08;;;;;;;10.98;4.88;;;;;;;9.13;71.18;99794.81;5090061;28;20052;-49
2021/09/17 03:31:34;;;;;;;10.90;4.85;;;;;;;9.16;71.24;99802.53;5091075;28;20051;-50
2021/09/17 03:34:00;;;;;;;11.10;4.60;;;;;;;9.17;70.70;99809.38;5073484;28;20087;-50
2021/09/17 03:36:29;;;;;;;7.68;4.53;;;;;;;9.19;70.79;99808.47;5105392;28;20130;-50
2021/09/17 03:38:55;;;;;;;12.25;5.63;;;;;;;9.19;70.51;99808.47;5092698;28;20055;-51
2021/09/17 03:41:21;;;;;;;19.08;7.43;;;;;;;9.17;70.60;99799.00;5091283;28;20131;-51
2021/09/17 03:43:47;;;;;;;15.63;5.88;;;;;;;9.24;70.60;99806.59;5104646;28;20181;-50
2021/09/17 03:46:12;;;;;;;10.18;4.40;;;;;;;9.24;70.37;99803.16;5107407;28;20028;-49
2021/09/17 03:48:38;;;;;;;12.40;4.65;;;;;;;9.25;70.75;99807.47;5088109;28;20123;-49
2021/09/17 03:51:05;;;;;;;12.32;5.57;;;;;;;9.26;70.59;99802.22;5093575;27;20043;-49
2021/09/17 03:53:31;;;;;;;6.30;4.05;;;;;;;9.26;70.61;99807.41;5099244;27;20048;-54
2021/09/17 03:55:57;;;;;;;9.30;5.22;;;;;;;9.25;70.69;99803.13;5091523;28;20566;-48
2021/09/17 03:58:23;;;;;;;6.28;3.90;;;;;;;9.28;70.62;99800.44;5106828;28;20122;-50
2021/09/17 04:00:48;;;;;;;10.20;5.07;;;;;;;9.30;70.45;99806.44;5110285;28;20431;-48
2021/09/17 04:03:14;;;;;;;11.13;4.07;;;;;;;9.33;70.23;99811.53;5096193;28;20199;-47
2021/09/17 04:05:40;;;;;;;12.68;4.53;;;;;;;9.35;70.17;99804.56;5078690;28;20089;-47
2021/09/17 04:08:06;;;;;;;7.72;4.00;;;;;;;9.39;70.21;99818.31;5110392;28;20044;-48
2021/09/17 04:10:32;;;;;;;5.78;3.92;;;;;;;9.40;69.78;99812.22;5111078;28;20071;-47
2021/09/17 04:12:58;;;;;;;7.28;3.78;;;;;;;9.35;69.61;99803.72;5080773;28;20043;-47
2021/09/17 04:15:23;;;;;;;7.20;3.83;;;;;;;9.46;69.20;99816.41;5089485;28;20499;-52
2021/09/17 04:17:49;;;;;;;23.13;4.43;;;;;;;9.48;68.83;99810.25;5110494;28;20399;-51
2021/09/17 04:20:15;;;;;;;18.83;4.13;;;;;;;9.50;68.75;99821.47;5089409;28;20455;-48
2021/09/17 04:22:41;;;;;;;18.30;4.18;;;;;;;9.55;67.74;99824.78;5088875;28;20118;-51
2021/09/17 04:25:09;;;;;;;7.32;3.90;;;;;;;9.55;67.96;99809.19;5092536;28;20514;-52
2021/09/17 04:27:35;;;;;;;10.48;3.70;;;;;;;9.68;67.77;99822.69;5090538;28;20050;-48
2021/09/17 04:30:03;;;;;;;9.98;4.20;;;;;;;9.73;67.84;99821.63;5091581;28;20039;-48
2021/09/17 04:32:30;;;;;;;4.72;3.20;;;;;;;9.81;67.25;99825.78;5107255;28;20557;-50
2021/09/17 04:34:55;;;;;;;6.90;3.55;;;;;;;9.88;67.02;99822.13;5109453;28;20039;-50
2021/09/17 04:37:21;;;;;;;8.75;4.13;;;;;;;10.02;66.67;99827.75;5108145;28;20176;-47
2021/09/17 04:39:47;;;;;;;7.18;3.60;;;;;;;10.12;65.84;99829.16;5109329;28;20545;-47
2021/09/17 04:42:13;;;;;;;12.68;4.10;;;;;;;10.25;65.68;99819.31;5108212;28;20074;-47
2021/09/17 04:44:39;;;;;;;6.25;3.95;;;;;;;10.37;65.23;99830.16;5107216;28;20142;-48
2021/09/17 04:47:05;;;;;;;9.88;4.15;;;;;;;10.40;64.96;99826.63;5109395;28;20035;-47
2021/09/17 04:49:31;;;;;;;7.28;3.70;;;;;;;10.34;64.87;99819.00;5110062;28;20422;-48
2021/09/17 04:51:57;;;;;;;9.88;4.68;;;;;;;10.40;64.54;99826.63;5110442;27;20035;-51
2021/09/17 04:54:22;;;;;;;11.63;4.03;;;;;;;10.43;64.69;99826.50;5106516;28;20259;-48
2021/09/17 04:56:48;;;;;;;8.23;3.97;;;;;;;10.37;64.49;99809.34;5110351;28;20050;-50
2021/09/17 04:59:14;;;;;;;12.60;4.53;;;;;;;10.43;64.70;99826.50;5110180;28;20183;-50
2021/09/17 05:01:40;;;;;;;8.45;4.40;;;;;;;10.42;64.11;99832.59;5109779;28;20083;-48
2021/09/17 05:04:05;;;;;;;6.65;4.20;;;;;;;10.35;65.01;99826.75;5088754;28;20039;-49
2021/09/17 05:06:31;;;;;;;5.75;3.95;;;;;;;10.43;64.61;99835.16;5089552;28;20032;-47
2021/09/17 05:08:58;;;;;;;7.47;4.18;;;;;;;10.43;64.55;99829.09;5110059;28;20517;-49
2021/09/17 05:11:24;;;;;;;5.93;4.07;;;;;;;10.33;64.94;99820.75;5091211;28;20039;-46
2021/09/17 05:13:50;;;;;;;8.95;4.65;;;;;;;10.46;64.60;99836.81;5107311;28;20172;-49
2021/09/17 05:16:16;;;;;;;10.23;5.70;;;;;;;10.47;64.63;99830.69;5091279;28;20126;-50
2021/09/17 05:18:46;;;;;;;7.03;4.35;;;;;;;10.48;64.71;99829.81;5109128;28;20047;-52
2021/09/17 05:21:15;;;;;;;7.28;4.55;;;;;;;10.50;64.69;99834.06;5066432;28;20035;-51
2021/09/17 05:23:41;;;;;;;10.10;4.38;;;;;;;10.50;64.46;99823.69;5085718;28;20510;-50
2021/09/17 05:26:07;;;;;;;10.55;4.45;;;;;;;10.53;64.67;99828.78;5090776;28;20039;-52
2021/09/17 05:28:33;;;;;;;9.02;3.90;;;;;;;10.48;63.68;99814.22;5113153;28;20035;-51
2021/09/17 05:30:59;;;;;;;7.20;3.90;;;;;;;10.58;63.27;99826.88;5095075;28;20122;-50
2021/09/17 05:33:25;;;;;;;5.32;3.63;;;;;;;10.61;62.87;99833.75;5110675;28;20032;-48
2021/09/17 05:35:51;;;;;;;6.85;3.53;;;;;;;10.65;62.63;99821.47;5095314;28;20054;-52
2021/09/17 05:38:17;;;;;;;7.82;3.85;;;;;;;10.63;62.27;99835.38;5084380;28;20047;-51
2021/09/17 05:40:43;;;;;;;9.32;4.00;;;;;;;10.64;62.25;99820.63;5105856;28;20046;-49
2021/09/17 05:43:09;;;;;;;6.30;4.18;;;;;;;10.63;61.89;99808.53;5092356;28;20081;-49
2021/09/17 05:45:35;;;;;;;6.32;4.20;;;;;;;10.72;61.18;99820.38;5092939;28;20088;-53
2021/09/17 05:48:01;;;;;;;5.80;3.40;;;;;;;10.71;61.54;99808.28;5093413;28;20128;-48
2021/09/17 05:50:26;;;;;;;9.57;4.30;;;;;;;10.73;61.19;99812.53;5093698;28;20040;-49
2021/09/17 05:52:52;;;;;;;8.38;4.05;;;;;;;10.80;61.24;99815.78;5124820;27;20035;-50
2021/09/17 05:55:18;;;;;;;8.90;4.03;;;;;;;10.76;60.83;99798.59;5084177;28;20078;-49
2021/09/17 05:57:44;;;;;;;6.88;4.20;;;;;;;10.85;60.74;99803.47;5093175;28;20184;-47
2021/09/17 06:00:11;;;;;;;9.48;4.20;;;;;;;10.72;60.95;99786.59;5093425;28;20047;-47
2021/09/17 06:02:39;;;;;;;8.77;4.15;;;;;;;10.81;61.03;99802.72;5108913;28;20043;-46
2021/09/17 06:05:05;;;;;;;8.27;4.90;;;;;;;10.75;60.83;99791.66;5092950;28;20044;-49
2021/09/17 06:07:31;;;;;;;10.68;4.22;;;;;;;10.79;61.19;99796.72;5092668;28;20574;-49
2021/09/17 06:09:57;;;;;;;7.57;4.30;;;;;;;10.80;60.79;99798.44;5081372;28;20135;-48
2021/09/17 06:12:23;;;;;;;8.65;4.18;;;;;;;10.81;60.99;99800.13;5095553;28;20395;-49
2021/09/17 06:14:48;;;;;;;8.13;4.05;;;;;;;10.80;61.22;99798.44;5094726;28;20134;-48
2021/09/17 06:17:14;;;;;;;9.20;4.50;;;;;;;10.82;60.63;99801.84;5112939;28;20055;-49
2021/09/17 06:19:40;;;;;;;18.17;4.45;;;;;;;10.83;59.94;99811.34;5113434;28;20051;-48
2021/09/17 06:22:06;;;;;;;8.93;5.15;;;;;;;10.92;60.30;99808.44;5113559;28;20028;-49
2021/09/17 06:24:33;;;;;;;11.02;4.43;;;;;;;11.04;59.97;99810.59;5122884;27;20119;-48
2021/09/17 06:26:59;;;;;;;9.27;4.72;;;;;;;11.19;59.33;99806.63;5111336;28;20584;-49
2021/09/17 06:29:24;;;;;;;10.32;4.85;;;;;;;11.32;59.78;99801.81;5094523;28;20074;-51
2021/09/17 06:31:50;;;;;;;8.48;4.70;;;;;;;11.37;58.94;99810.31;5113364;28;20038;-49
2021/09/17 06:34:16;;;;;;;8.60;4.43;;;;;;;11.44;58.99;99811.81;5058721;28;20082;-50
2021/09/17 06:36:42;;;;;;;6.70;4.20;;;;;;;11.44;58.69;99804.00;5092619;28;20395;-48
2021/09/17 06:39:08;;;;;;;8.20;4.25;;;;;;;11.54;58.04;99812.31;5091976;28;20121;-48
2021/09/17 06:41:34;;;;;;;11.98;4.65;;;;;;;11.45;58.24;99818.72;5091444;28;20111;-50
2021/09/17 06:44:00;;;;;;;7.90;4.80;;;;;;;11.39;58.05;99811.13;5091608;28;20094;-49
2021/09/17 06:46:26;;;;;;;14.90;6.68;;;;;;;11.39;57.17;99813.72;5074249;28;20485;-48
2021/09/17 06:48:51;;;;;;;8.02;4.50;;;;;;;11.52;56.81;99801.09;5091008;28;20080;-48
2021/09/17 06:51:17;;;;;;;7.03;3.83;;;;;;;11.78;56.00;99817.50;5078817;27;20108;-48
2021/09/17 06:53:44;;;;;;;13.77;8.65;;;;;;;11.97;55.07;99809.03;5114735;27;20043;-51
2021/09/17 06:56:11;;;;;;;8.20;4.50;;;;;;;12.10;54.42;99818.91;5096962;27;20096;-49
2021/09/17 06:58:37;;;;;;;6.43;3.60;;;;;;;12.13;53.59;99817.97;5091987;28;20043;-48
2021/09/17 07:01:03;;;;;;;11.65;5.88;;;;;;;12.00;53.29;99811.50;5092287;28;20471;-46
2021/09/17 07:03:30;;;;;;;7.50;4.38;;;;;;;12.09;53.61;99824.19;5090726;28;20097;-49
2021/09/17 07:05:56;;;;;;;12.43;4.45;;;;;;;11.98;52.69;99806.38;5083423;28;20039;-50
2021/09/17 07:08:22;;;;;;;6.90;3.25;;;;;;;12.05;51.14;99826.06;5092383;28;20044;-49
2021/09/17 07:10:49;;;;;;;6.10;3.72;;;;;;;11.96;50.59;99821.19;5090276;28;20036;-49
2021/09/17 07:13:15;;;;;;;5.05;3.60;;;;;;;11.98;50.44;99823.75;5091613;28;20047;-52
2021/09/17 07:15:41;;;;;;;5.70;3.78;;;;;;;11.84;50.41;99817.28;5092614;28;20472;-50
2021/09/17 07:18:08;;;;;;;6.65;4.13;;;;;;;11.82;50.69;99826.09;5112309;28;20104;-49
2021/09/17 07:20:35;;;;;;;9.13;4.43;;;;;;;11.81;50.76;99824.38;5089296;28;20530;-50
2021/09/17 07:23:03;;;;;;;7.25;3.83;;;;;;;11.85;51.09;99816.41;5088974;28;20062;-48
2021/09/17 07:25:31;;;;;;;5.93;3.70;;;;;;;11.83;50.88;99807.78;5071580;28;20126;-49
2021/09/17 07:27:56;;;;;;;9.77;4.65;;;;;;;11.96;50.31;99816.00;5091449;28;20119;-47
2021/09/17 07:30:23;;;;;;;11.77;4.50;;;;;;;11.99;49.77;99815.84;5090836;28;20036;-49
2021/09/17 07:32:50;;;;;;;5.50;3.67;;;;;;;11.99;49.43;99813.25;5091700;28;20459;-48
2021/09/17 07:35:15;;;;;;;10.82;3.75;;;;;;;11.98;49.32;99824.59;5093533;28;20215;-46
2021/09/17 07:37:42;;;;;;;7.97;3.60;;;;;;;11.90;48.68;99811.00;5103743;28;20070;-48
2021/09/17 07:40:10;;;;;;;12.40;7.65;;;;;;;11.99;48.60;99821.06;5091420;28;20097;-49
2021/09/17 07:42:36;;;;;;;5.78;3.35;;;;;;;11.89;48.37;99797.13;5088734;28;20422;-51
2021/09/17 07:45:03;;;;;;;6.25;3.88;;;;;;;12.03;48.34;99821.81;5090822;28;20036;-46
2021/09/17 07:47:29;;;;;;;8.45;3.55;;;;;;;12.00;47.93;99825.38;5099237;28;20067;-47
2021/09/17 07:49:55;;;;;;;5.32;3.38;;;;;;;11.84;46.98;99804.25;5111021;28;20541;-50
2021/09/17 07:52:20;;;;;;;6.63;3.85;;;;;;;11.95;46.92;99835.13;5110792;28;20043;-49
2021/09/17 07:54:46;;;;;;;7.43;3.63;;;;;;;11.92;46.87;99829.19;5113361;27;20056;-47
2021/09/17 07:57:12;;;;;;;15.77;4.40;;;;;;;11.90;47.26;99831.84;5091083;28;20055;-48
2021/09/17 07:59:38;;;;;;;8.55;3.78;;;;;;;11.92;47.62;99839.63;5091083;28;20075;-50
2021/09/17 08:02:04;;;;;;;9.18;4.45;;;;;;;11.95;47.47;99844.69;5089332;28;20032;-47
2021/09/17 08:04:30;;;;;;;12.50;4.50;;;;;;;11.95;47.67;99845.56;5089409;28;20056;-48
2021/09/17 08:06:55;;;;;;;8.63;4.38;;;;;;;11.91;47.51;99838.75;5073312;28;20281;-49
2021/09/17 08:09:21;;;;;;;7.47;4.25;;;;;;;11.91;47.81;99837.91;5090896;28;20051;-49
2021/09/17 08:11:47;;;;;;;15.13;7.70;;;;;;;11.93;47.34;99839.56;5096892;28;20035;-48
2021/09/17 08:14:13;;;;;;;6.07;3.78;;;;;;;11.94;46.37;99830.81;5102244;28;20104;-50
2021/09/17 08:16:39;;;;;;;6.50;3.55;;;;;;;11.84;46.63;99803.41;5090716;28;20039;-50
2021/09/17 08:19:05;;;;;;;6.78;3.72;;;;;;;11.99;46.30;99830.63;5098623;28;20069;-49
2021/09/17 08:21:32;;;;;;;7.43;3.67;;;;;;;12.02;46.23;99833.16;5110800;28;20039;-49
2021/09/17 08:23:58;;;;;;;9.07;4.20;;;;;;;11.92;46.21;99810.94;5107105;28;20155;-47
2021/09/17 08:26:24;;;;;;;7.80;3.70;;;;;;;12.05;45.92;99827.81;5090697;28;20178;-49
2021/09/17 08:28:50;;;;;;;6.93;3.78;;;;;;;12.08;45.98;99822.50;5090498;28;20043;-50
2021/09/17 08:31:25;;;;;;;6.03;3.65;;;;;;;12.03;45.70;99820.06;5104977;28;20036;-52
2021/09/17 08:34:09;;;;;;;4.45;3.15;;;;;;;12.16;45.33;99828.25;5090099;28;20044;-52
2021/09/17 08:36:55;;;;;;;4.30;2.85;;;;;;;12.17;44.22;99830.81;5089135;28;20503;-52
2021/09/17 08:39:32;;;;;;;3.85;2.88;;;;;;;12.16;43.72;99828.25;5089913;28;20407;-48
2021/09/17 08:42:07;;;;;;;7.35;2.90;;;;;;;12.11;43.39;99819.75;5090373;28;20044;-47
2021/09/17 08:44:33;;;;;;;6.90;3.20;;;;;;;12.10;44.04;99816.31;5091490;28;20150;-49
2021/09/17 08:47:00;;;;;;;7.75;4.20;;;;;;;12.22;43.81;99818.44;5110847;28;20039;-47
2021/09/17 08:49:27;;;;;;;9.52;4.30;;;;;;;12.43;43.79;99824.56;5110716;28;20035;-52
2021/09/17 08:51:54;;;;;;;6.90;3.30;;;;;;;12.59;43.58;99820.44;5109993;28;20043;-51
2021/09/17 08:54:20;;;;;;;10.95;3.15;;;;;;;12.61;43.48;99823.00;5091089;28;20085;-51
2021/09/17 08:56:46;;;;;;;7.45;3.20;;;;;;;12.59;42.95;99822.22;5090166;28;20055;-49
2021/09/17 08:59:11;;;;;;;4.90;3.30;;;;;;;12.57;42.74;99813.56;5090079;28;20051;-49
2021/09/17 09:01:37;;;;;;;8.05;3.00;;;;;;;12.67;42.57;99813.16;5089100;28;20036;-52
2021/09/17 09:04:08;;;;;;;3.35;2.65;;;;;;;12.82;42.26;99813.44;5089552;28;20077;-48
2021/09/17 09:06:42;;;;;;;5.25;3.22;;;;;;;12.97;42.00;99810.19;5089479;28;20101;-50
2021/09/17 09:09:15;;;;;;;6.18;3.30;;;;;;;13.12;42.04;99806.97;5109918;28;20047;-48
2021/09/17 09:11:41;;;;;;;4.47;3.33;;;;;;;13.28;42.07;99802.78;5109999;28;20151;-49
2021/09/17 09:14:13;;;;;;;7.60;3.05;;;;;;;13.40;41.82;99812.69;5091649;28;20035;-50
2021/09/17 09:16:42;;;;;;;6.82;3.47;;;;;;;13.56;41.68;99815.47;5091312;28;20498;-53
2021/09/17 09:19:23;;;;;;;6.93;3.70;;;;;;;13.83;41.70;99808.16;5126149;28;20108;-48
2021/09/17 09:21:51;;;;;;;9.52;4.47;;;;;;;14.02;41.47;99811.63;5109815;28;20039;-51
2021/09/17 09:24:20;;;;;;;5.18;3.50;;;;;;;14.08;40.96;99813.13;5095031;28;20051;-51
2021/09/17 09:26:46;;;;;;;7.03;4.30;;;;;;;14.05;41.23;99813.25;5087771;28;20426;-48
2021/09/17 09:29:27;;;;;;;5.18;3.45;;;;;;;13.87;41.42;99804.50;5089709;28;20040;-49
2021/09/17 09:31:53;;;;;;;7.30;3.92;;;;;;;13.75;41.97;99807.66;5089433;28;20080;-50
2021/09/17 09:34:21;;;;;;;8.13;5.25;;;;;;;13.57;42.39;99812.78;5087758;28;20078;-48
2021/09/17 09:36:47;;;;;;;6.75;3.90;;;;;;;13.33;42.54;99808.66;5087767;28;20166;-50
2021/09/17 09:39:13;;;;;;;6.35;3.65;;;;;;;13.11;42.70;99813.06;5071035;28;20052;-48
2021/09/17 09:41:39;;;;;;;6.20;3.55;;;;;;;12.94;43.16;99813.78;5088119;28;20044;-52
2021/09/17 09:44:16;;;;;;;6.07;3.60;;;;;;;12.79;44.13;99811.81;5089460;28;20472;-51
2021/09/17 09:46:45;;;;;;;12.90;7.07;;;;;;;12.71;43.95;99819.97;5088049;28;20036;-49
2021/09/17 09:49:26;;;;;;;6.60;3.35;;;;;;;12.63;43.34;99811.59;5089426;28;20040;-49
2021/09/17 09:51:55;;;;;;;4.35;3.00;;;;;;;12.55;42.95;99818.88;5098730;28;20031;-48
2021/09/17 09:54:23;;;;;;;8.40;3.38;;;;;;;12.56;43.09;99815.34;5103219;28;20043;-47
2021/09/17 09:56:50;;;;;;;6.82;3.80;;;;;;;12.60;43.74;99819.53;5089217;28;20051;-47
2021/09/17 09:59:19;;;;;;;13.68;3.95;;;;;;;12.69;43.52;99826.13;5071175;28;20419;-48
2021/09/17 10:01:45;;;;;;;7.75;3.45;;;;;;;12.75;43.11;99820.69;5090599;28;20047;-51
2021/09/17 10:04:11;;;;;;;9.45;3.15;;;;;;;12.78;42.63;99823.16;5109926;28;20035;-51
2021/09/17 10:06:39;;;;;;;10.82;3.20;;;;;;;12.82;42.60;99829.09;5108776;28;20100;-49
2021/09/17 10:09:06;;;;;;;11.80;4.80;;;;;;;12.89;42.94;99831.38;5109563;28;20418;-50
2021/09/17 10:11:32;;;;;;;8.75;4.30;;;;;;;12.87;43.40;99804.53;5090961;28;20035;-52
2021/09/17 10:14:00;;;;;;;10.27;4.95;;;;;;;13.01;43.00;99809.16;5112251;28;20091;-48
2021/09/17 10:16:27;;;;;;;7.43;4.82;;;;;;;13.23;43.06;99822.19;5113449;28;20044;-52
2021/09/17 10:18:53;;;;;;;8.13;4.20;;;;;;;13.30;42.96;99828.81;5094883;28;20126;-49
2021/09/17 10:21:57;;;;;;;8.23;3.55;;;;;;;13.53;42.43;99821.69;5081174;28;20067;-49
2021/09/17 10:24:25;;;;;;;9.30;4.22;;;;;;;13.79;41.98;99824.91;5091506;28;20081;-46
2021/09/17 10:27:03;;;;;;;10.80;3.77;;;;;;;13.97;41.09;99824.91;5074699;28;20502;-52
2021/09/17 10:29:33;;;;;;;7.30;2.88;;;;;;;13.95;40.49;99812.81;5092001;28;20815;-47
2021/09/17 10:32:00;;;;;;;7.22;3.08;;;;;;;14.11;39.86;99832.13;5074731;28;20055;-51
2021/09/17 10:34:41;;;;;;;6.07;3.30;;;;;;;14.17;39.99;99828.38;5092790;28;20047;-50
2021/09/17 10:37:09;;;;;;;11.77;3.60;;;;;;;14.17;40.31;99836.22;5092641;28;20403;-53
2021/09/17 10:39:36;;;;;;;12.27;4.28;;;;;;;14.07;41.14;99837.56;5092315;28;20056;-49
2021/09/17 10:42:09;;;;;;;17.40;7.68;;;;;;;13.99;41.70;99838.75;5092450;28;20036;-49
2021/09/17 10:45:06;;;;;;;9.60;3.60;;;;;;;13.91;41.60;99835.66;5092649;28;20529;-53
2021/09/17 10:47:41;;;;;;;7.28;4.40;;;;;;;13.86;41.53;99831.56;5092580;28;20142;-50
2021/09/17 10:50:10;;;;;;;4.80;3.40;;;;;;;13.91;41.67;99838.28;5073862;28;20473;-51
2021/09/17 10:52:44;;;;;;;5.25;3.30;;;;;;;13.89;41.50;99841.84;5119100;27;20043;-52
2021/09/17 10:56:01;;;;;;;4.38;2.78;;;;;;;13.74;41.34;99832.09;5115023;27;20441;-48
2021/09/17 10:58:29;;;;;;;5.93;3.60;;;;;;;13.66;41.68;99829.00;5087614;28;20117;-49
2021/09/17 11:01:04;;;;;;;6.03;3.22;;;;;;;13.63;41.90;99842.16;5107706;27;20042;-54
2021/09/17 11:03:39;;;;;;;7.43;3.33;;;;;;;13.56;41.87;99839.81;5090988;28;20036;-50
2021/09/17 11:06:25;;;;;;;8.80;4.20;;;;;;;13.55;42.56;99843.34;5092547;28;20039;-47
2021/09/17 11:09:05;;;;;;;12.48;4.75;;;;;;;13.62;42.82;99845.69;5092196;28;20040;-53
2021/09/17 11:11:33;;;;;;;12.70;4.95;;;;;;;13.65;42.85;99841.19;5091369;28;20137;-49
2021/09/17 11:14:01;;;;;;;11.23;4.20;;;;;;;13.65;42.99;99845.56;5092039;28;20036;-48
2021/09/17 11:16:28;;;;;;;16.67;6.72;;;;;;;13.51;42.75;99833.94;5091777;28;20036;-48
2021/09/17 11:19:05;;;;;;;6.13;2.83;;;;;;;13.37;43.23;99836.31;5091910;28;20048;-48
2021/09/17 11:21:36;;;;;;;14.60;5.50;;;;;;;13.41;43.20;99845.72;5081447;28;20039;-51
2021/09/17 11:24:04;;;;;;;9.57;4.05;;;;;;;13.39;43.55;99844.97;5112156;28;20096;-49
2021/09/17 11:26:31;;;;;;;10.75;2.90;;;;;;;13.38;43.47;99837.19;5111754;28;20485;-49
2021/09/17 11:28:59;;;;;;;9.80;3.03;;;;;;;13.33;43.42;99846.97;5077801;28;20507;-49
2021/09/17 11:31:31;;;;;;;5.20;3.38;;;;;;;13.30;43.42;99849.69;5072835;28;20048;-50
2021/09/17 11:34:05;;;;;;;5.07;2.50;;;;;;;13.36;42.60;99845.06;5091555;28;20035;-50
2021/09/17 11:36:34;;;;;;;9.60;3.47;;;;;;;13.41;42.42;99850.09;5073689;28;20477;-51
2021/09/17 11:39:21;;;;;;;9.75;4.40;;;;;;;13.30;42.76;99840.09;5091423;28;20425;-51
2021/09/17 11:41:54;;;;;;;9.32;3.08;;;;;;;13.19;42.76;99851.94;5089507;28;20544;-49
2021/09/17 11:44:40;;;;;;;6.18;2.58;;;;;;;13.07;42.63;99851.50;5091203;28;20051;-48
2021/09/17 11:47:11;;;;;;;7.97;3.55;;;;;;;12.96;42.84;99850.25;5091679;28;20131;-47
2021/09/17 11:49:44;;;;;;;8.80;3.08;;;;;;;12.99;43.12;99863.16;5091395;28;20089;-49
2021/09/17 11:52:14;;;;;;;7.63;3.97;;;;;;;12.92;43.26;99859.97;5112558;27;20035;-48
2021/09/17 11:54:40;;;;;;;6.88;3.90;;;;;;;12.89;43.21;99862.69;5113505;27;20137;-47